sensor_id;sensor_type;location;lat;lon;timestamp;P1;durP1;ratioP1;P2;durP2;ratioP2
25497;SDS011;13406;53.380;7.226;2023-02-11T00:01:07;18.27;;;6.53;;
25497;SDS011;13406;53.380;7.226;2023-02-11T00:03:33;18.53;;;6.97;;
25497;SDS011;13406;53.380;7.226;2023-02-11T00:05:58;24.80;;;7.87;;
25497;SDS011;13406;53.380;7.226;2023-02-11T00:08:24;21.93;;;7.40;;
25497;SDS011;13406;53.380;7.226;2023-02-11T00:10:51;19.10;;;6.73;;
25497;SDS011;13406;53.380;7.226;2023-02-11T00:13:16;22.03;;;7.80;;
25497;SDS011;13406;53.380;7.226;2023-02-11T00:15:43;20.63;;;7.63;;
25497;SDS011;13406;53.380;7.226;2023-02-11T00:18:09;17.03;;;7.90;;
25497;SDS011;13406;53.380;7.226;2023-02-11T00:20:34;20.00;;;7.50;;
25497;SDS011;13406;53.380;7.226;2023-02-11T00:22:59;20.20;;;7.60;;
25497;SDS011;13406;53.380;7.226;2023-02-11T00:25:27;22.23;;;6.90;;
25497;SDS011;13406;53.380;7.226;2023-02-11T00:27:52;20.67;;;7.50;;
25497;SDS011;13406;53.380;7.226;2023-02-11T00:30:18;24.00;;;8.40;;
25497;SDS011;13406;53.380;7.226;2023-02-11T00:32:43;21.87;;;9.07;;
25497;SDS011;13406;53.380;7.226;2023-02-11T00:35:11;17.10;;;7.20;;
25497;SDS011;13406;53.380;7.226;2023-02-11T00:37:36;18.83;;;7.50;;
25497;SDS011;13406;53.380;7.226;2023-02-11T00:40:02;22.97;;;7.20;;
25497;SDS011;13406;53.380;7.226;2023-02-11T00:42:28;15.73;;;7.73;;
25497;SDS011;13406;53.380;7.226;2023-02-11T00:44:56;30.10;;;9.13;;
25497;SDS011;13406;53.380;7.226;2023-02-11T00:47:21;21.13;;;7.50;;
25497;SDS011;13406;53.380;7.226;2023-02-11T00:49:46;18.40;;;7.70;;
25497;SDS011;13406;53.380;7.226;2023-02-11T00:52:14;18.10;;;7.50;;
25497;SDS011;13406;53.380;7.226;2023-02-11T00:54:39;16.10;;;7.90;;
25497;SDS011;13406;53.380;7.226;2023-02-11T00:57:05;16.93;;;7.80;;
25497;SDS011;13406;53.380;7.226;2023-02-11T00:59:32;15.47;;;7.33;;
25497;SDS011;13406;53.380;7.226;2023-02-11T01:01:58;18.97;;;8.77;;
25497;SDS011;13406;53.380;7.226;2023-02-11T01:04:23;23.83;;;7.63;;
25497;SDS011;13406;53.380;7.226;2023-02-11T01:06:48;19.87;;;7.63;;
25497;SDS011;13406;53.380;7.226;2023-02-11T01:09:14;26.13;;;8.93;;
25497;SDS011;13406;53.380;7.226;2023-02-11T01:11:39;22.13;;;7.77;;
25497;SDS011;13406;53.380;7.226;2023-02-11T01:14:07;23.73;;;7.83;;
25497;SDS011;13406;53.380;7.226;2023-02-11T01:16:32;18.90;;;8.33;;
25497;SDS011;13406;53.380;7.226;2023-02-11T01:18:57;42.77;;;8.73;;
25497;SDS011;13406;53.380;7.226;2023-02-11T01:21:23;21.00;;;7.63;;
25497;SDS011;13406;53.380;7.226;2023-02-11T01:23:48;13.43;;;7.13;;
25497;SDS011;13406;53.380;7.226;2023-02-11T01:26:15;21.97;;;7.73;;
25497;SDS011;13406;53.380;7.226;2023-02-11T01:28:41;23.83;;;8.40;;
25497;SDS011;13406;53.380;7.226;2023-02-11T01:31:06;35.07;;;8.70;;
25497;SDS011;13406;53.380;7.226;2023-02-11T01:33:31;25.70;;;9.13;;
25497;SDS011;13406;53.380;7.226;2023-02-11T01:36:03;21.10;;;8.73;;
25497;SDS011;13406;53.380;7.226;2023-02-11T01:38:29;20.90;;;9.93;;
25497;SDS011;13406;53.380;7.226;2023-02-11T01:40:56;16.00;;;7.30;;
25497;SDS011;13406;53.380;7.226;2023-02-11T01:43:22;23.57;;;8.97;;
25497;SDS011;13406;53.380;7.226;2023-02-11T01:45:53;20.00;;;8.50;;
25497;SDS011;13406;53.380;7.226;2023-02-11T01:48:20;16.00;;;9.07;;
25497;SDS011;13406;53.380;7.226;2023-02-11T01:50:47;19.90;;;8.87;;
25497;SDS011;13406;53.380;7.226;2023-02-11T01:53:14;19.37;;;8.20;;
25497;SDS011;13406;53.380;7.226;2023-02-11T01:55:58;24.37;;;9.87;;
25497;SDS011;13406;53.380;7.226;2023-02-11T01:58:43;21.70;;;8.67;;
25497;SDS011;13406;53.380;7.226;2023-02-11T02:01:10;25.17;;;9.50;;
25497;SDS011;13406;53.380;7.226;2023-02-11T02:03:37;26.00;;;9.33;;
25497;SDS011;13406;53.380;7.226;2023-02-11T02:06:11;20.13;;;9.03;;
25497;SDS011;13406;53.380;7.226;2023-02-11T02:11:10;22.10;;;9.00;;
25497;SDS011;13406;53.380;7.226;2023-02-11T02:13:35;18.03;;;8.43;;
25497;SDS011;13406;53.380;7.226;2023-02-11T02:16:02;21.10;;;8.77;;
25497;SDS011;13406;53.380;7.226;2023-02-11T02:29:25;27.27;;;11.47;;
25497;SDS011;13406;53.380;7.226;2023-02-11T02:40:00;24.73;;;10.53;;
25497;SDS011;13406;53.380;7.226;2023-02-11T02:42:28;20.10;;;10.30;;
25497;SDS011;13406;53.380;7.226;2023-02-11T02:44:53;17.70;;;10.20;;
25497;SDS011;13406;53.380;7.226;2023-02-11T02:47:19;22.33;;;9.80;;
25497;SDS011;13406;53.380;7.226;2023-02-11T02:49:45;22.50;;;10.10;;
25497;SDS011;13406;53.380;7.226;2023-02-11T02:54:52;21.20;;;10.00;;
25497;SDS011;13406;53.380;7.226;2023-02-11T03:09:58;21.73;;;11.60;;
25497;SDS011;13406;53.380;7.226;2023-02-11T03:12:26;24.70;;;12.43;;
25497;SDS011;13406;53.380;7.226;2023-02-11T03:14:53;22.10;;;13.03;;
25497;SDS011;13406;53.380;7.226;2023-02-11T03:17:18;21.40;;;12.17;;
25497;SDS011;13406;53.380;7.226;2023-02-11T03:19:45;26.43;;;11.10;;
25497;SDS011;13406;53.380;7.226;2023-02-11T03:22:12;22.00;;;11.10;;
25497;SDS011;13406;53.380;7.226;2023-02-11T03:24:40;30.23;;;11.70;;
25497;SDS011;13406;53.380;7.226;2023-02-11T03:27:08;31.90;;;12.77;;
25497;SDS011;13406;53.380;7.226;2023-02-11T03:29:48;21.50;;;12.67;;
25497;SDS011;13406;53.380;7.226;2023-02-11T03:32:59;26.90;;;13.20;;
25497;SDS011;13406;53.380;7.226;2023-02-11T03:35:09;19.97;;;11.53;;
25497;SDS011;13406;53.380;7.226;2023-02-11T03:37:37;29.10;;;12.47;;
25497;SDS011;13406;53.380;7.226;2023-02-11T03:40:12;24.60;;;12.20;;
25497;SDS011;13406;53.380;7.226;2023-02-11T03:42:43;28.33;;;12.07;;
25497;SDS011;13406;53.380;7.226;2023-02-11T03:45:10;28.90;;;13.00;;
25497;SDS011;13406;53.380;7.226;2023-02-11T03:47:37;21.33;;;12.37;;
25497;SDS011;13406;53.380;7.226;2023-02-11T03:50:04;25.80;;;13.20;;
25497;SDS011;13406;53.380;7.226;2023-02-11T03:52:31;23.23;;;11.90;;
25497;SDS011;13406;53.380;7.226;2023-02-11T03:54:58;18.57;;;12.07;;
25497;SDS011;13406;53.380;7.226;2023-02-11T03:57:24;25.50;;;13.63;;
25497;SDS011;13406;53.380;7.226;2023-02-11T03:59:52;29.67;;;12.90;;
25497;SDS011;13406;53.380;7.226;2023-02-11T04:02:17;24.57;;;13.70;;
25497;SDS011;13406;53.380;7.226;2023-02-11T04:04:43;25.10;;;13.80;;
25497;SDS011;13406;53.380;7.226;2023-02-11T04:07:10;21.27;;;12.57;;
25497;SDS011;13406;53.380;7.226;2023-02-11T04:09:35;23.07;;;13.57;;
25497;SDS011;13406;53.380;7.226;2023-02-11T04:12:01;24.57;;;13.50;;
25497;SDS011;13406;53.380;7.226;2023-02-11T04:14:26;28.60;;;14.20;;
25497;SDS011;13406;53.380;7.226;2023-02-11T04:16:51;25.90;;;14.07;;
25497;SDS011;13406;53.380;7.226;2023-02-11T04:19:17;26.20;;;13.20;;
25497;SDS011;13406;53.380;7.226;2023-02-11T04:21:42;26.20;;;14.67;;
25497;SDS011;13406;53.380;7.226;2023-02-11T04:24:07;21.77;;;13.10;;
25497;SDS011;13406;53.380;7.226;2023-02-11T04:26:33;23.20;;;13.30;;
25497;SDS011;13406;53.380;7.226;2023-02-11T04:28:58;22.37;;;12.90;;
25497;SDS011;13406;53.380;7.226;2023-02-11T04:31:23;27.50;;;14.40;;
25497;SDS011;13406;53.380;7.226;2023-02-11T04:33:48;21.70;;;13.53;;
25497;SDS011;13406;53.380;7.226;2023-02-11T04:36:16;21.23;;;13.70;;
25497;SDS011;13406;53.380;7.226;2023-02-11T04:38:41;22.87;;;14.17;;
25497;SDS011;13406;53.380;7.226;2023-02-11T04:41:07;24.00;;;13.20;;
25497;SDS011;13406;53.380;7.226;2023-02-11T04:43:32;22.40;;;13.87;;
25497;SDS011;13406;53.380;7.226;2023-02-11T04:45:57;22.27;;;13.00;;
25497;SDS011;13406;53.380;7.226;2023-02-11T04:48:23;25.53;;;14.03;;
25497;SDS011;13406;53.380;7.226;2023-02-11T04:50:48;22.97;;;14.50;;
25497;SDS011;13406;53.380;7.226;2023-02-11T04:53:13;21.60;;;13.80;;
25497;SDS011;13406;53.380;7.226;2023-02-11T04:55:39;24.40;;;13.80;;
25497;SDS011;13406;53.380;7.226;2023-02-11T04:58:06;22.00;;;13.77;;
25497;SDS011;13406;53.380;7.226;2023-02-11T05:00:32;24.83;;;14.33;;
25497;SDS011;13406;53.380;7.226;2023-02-11T05:02:57;23.80;;;14.13;;
25497;SDS011;13406;53.380;7.226;2023-02-11T05:05:22;19.47;;;13.03;;
25497;SDS011;13406;53.380;7.226;2023-02-11T05:07:48;20.10;;;12.63;;
25497;SDS011;13406;53.380;7.226;2023-02-11T05:10:13;24.67;;;14.13;;
25497;SDS011;13406;53.380;7.226;2023-02-11T05:12:38;27.77;;;14.83;;
25497;SDS011;13406;53.380;7.226;2023-02-11T05:15:03;21.97;;;13.00;;
25497;SDS011;13406;53.380;7.226;2023-02-11T05:17:29;21.87;;;14.20;;
25497;SDS011;13406;53.380;7.226;2023-02-11T05:19:56;21.60;;;13.90;;
25497;SDS011;13406;53.380;7.226;2023-02-11T05:22:22;23.43;;;14.03;;
25497;SDS011;13406;53.380;7.226;2023-02-11T05:24:47;25.17;;;14.10;;
25497;SDS011;13406;53.380;7.226;2023-02-11T05:27:12;24.23;;;15.07;;
25497;SDS011;13406;53.380;7.226;2023-02-11T05:29:38;23.70;;;13.90;;
25497;SDS011;13406;53.380;7.226;2023-02-11T05:32:03;25.07;;;13.50;;
25497;SDS011;13406;53.380;7.226;2023-02-11T05:34:28;22.93;;;12.80;;
25497;SDS011;13406;53.380;7.226;2023-02-11T05:36:54;22.07;;;13.27;;
25497;SDS011;13406;53.380;7.226;2023-02-11T05:39:19;21.17;;;13.47;;
25497;SDS011;13406;53.380;7.226;2023-02-11T05:41:44;20.03;;;13.83;;
25497;SDS011;13406;53.380;7.226;2023-02-11T05:44:10;20.63;;;13.67;;
25497;SDS011;13406;53.380;7.226;2023-02-11T05:46:35;23.23;;;13.50;;
25497;SDS011;13406;53.380;7.226;2023-02-11T05:49:00;18.87;;;13.37;;
25497;SDS011;13406;53.380;7.226;2023-02-11T05:51:25;26.13;;;13.90;;
25497;SDS011;13406;53.380;7.226;2023-02-11T05:53:51;19.80;;;12.77;;
25497;SDS011;13406;53.380;7.226;2023-02-11T05:56:16;23.97;;;14.30;;
25497;SDS011;13406;53.380;7.226;2023-02-11T05:58:44;20.37;;;13.17;;
25497;SDS011;13406;53.380;7.226;2023-02-11T06:01:09;21.33;;;13.30;;
25497;SDS011;13406;53.380;7.226;2023-02-11T06:03:35;22.37;;;12.07;;
25497;SDS011;13406;53.380;7.226;2023-02-11T06:06:00;21.10;;;13.23;;
25497;SDS011;13406;53.380;7.226;2023-02-11T06:08:25;26.80;;;13.47;;
25497;SDS011;13406;53.380;7.226;2023-02-11T06:10:53;24.70;;;12.70;;
25497;SDS011;13406;53.380;7.226;2023-02-11T06:13:18;23.90;;;12.93;;
25497;SDS011;13406;53.380;7.226;2023-02-11T06:15:53;25.60;;;13.20;;
25497;SDS011;13406;53.380;7.226;2023-02-11T06:18:19;17.63;;;11.60;;
25497;SDS011;13406;53.380;7.226;2023-02-11T06:20:44;32.67;;;13.10;;
25497;SDS011;13406;53.380;7.226;2023-02-11T06:23:09;19.37;;;12.37;;
25497;SDS011;13406;53.380;7.226;2023-02-11T06:25:35;25.13;;;13.57;;
25497;SDS011;13406;53.380;7.226;2023-02-11T06:28:00;18.60;;;12.13;;
25497;SDS011;13406;53.380;7.226;2023-02-11T06:30:26;20.50;;;12.17;;
25497;SDS011;13406;53.380;7.226;2023-02-11T06:32:51;20.07;;;12.00;;
25497;SDS011;13406;53.380;7.226;2023-02-11T06:35:16;27.47;;;12.87;;
25497;SDS011;13406;53.380;7.226;2023-02-11T06:37:42;18.30;;;12.30;;
25497;SDS011;13406;53.380;7.226;2023-02-11T06:40:07;28.17;;;12.87;;
25497;SDS011;13406;53.380;7.226;2023-02-11T06:42:35;23.00;;;13.07;;
25497;SDS011;13406;53.380;7.226;2023-02-11T06:45:03;20.70;;;11.73;;
25497;SDS011;13406;53.380;7.226;2023-02-11T06:47:29;25.17;;;11.23;;
25497;SDS011;13406;53.380;7.226;2023-02-11T06:49:56;19.67;;;12.30;;
25497;SDS011;13406;53.380;7.226;2023-02-11T06:52:21;19.20;;;11.30;;
25497;SDS011;13406;53.380;7.226;2023-02-11T06:54:47;25.43;;;13.10;;
25497;SDS011;13406;53.380;7.226;2023-02-11T06:57:14;18.10;;;11.53;;
25497;SDS011;13406;53.380;7.226;2023-02-11T06:59:40;21.60;;;10.87;;
25497;SDS011;13406;53.380;7.226;2023-02-11T07:02:05;23.13;;;12.03;;
25497;SDS011;13406;53.380;7.226;2023-02-11T07:04:31;22.23;;;10.87;;
25497;SDS011;13406;53.380;7.226;2023-02-11T07:06:56;18.60;;;12.20;;
25497;SDS011;13406;53.380;7.226;2023-02-11T07:09:23;22.57;;;11.00;;
25497;SDS011;13406;53.380;7.226;2023-02-11T07:11:51;18.17;;;11.20;;
25497;SDS011;13406;53.380;7.226;2023-02-11T07:14:16;26.07;;;11.47;;
25497;SDS011;13406;53.380;7.226;2023-02-11T07:16:42;20.43;;;10.90;;
25497;SDS011;13406;53.380;7.226;2023-02-11T07:19:09;21.77;;;10.53;;
25497;SDS011;13406;53.380;7.226;2023-02-11T07:21:35;19.03;;;10.50;;
25497;SDS011;13406;53.380;7.226;2023-02-11T07:24:00;20.70;;;11.37;;
25497;SDS011;13406;53.380;7.226;2023-02-11T07:26:25;21.50;;;12.20;;
25497;SDS011;13406;53.380;7.226;2023-02-11T07:28:51;17.87;;;10.87;;
25497;SDS011;13406;53.380;7.226;2023-02-11T07:31:21;16.83;;;10.43;;
25497;SDS011;13406;53.380;7.226;2023-02-11T07:33:48;21.20;;;12.20;;
25497;SDS011;13406;53.380;7.226;2023-02-11T07:36:14;19.03;;;10.90;;
25497;SDS011;13406;53.380;7.226;2023-02-11T07:38:39;22.10;;;10.63;;
25497;SDS011;13406;53.380;7.226;2023-02-11T07:41:05;21.70;;;12.00;;
25497;SDS011;13406;53.380;7.226;2023-02-11T07:43:31;19.77;;;10.03;;
25497;SDS011;13406;53.380;7.226;2023-02-11T07:45:57;19.77;;;10.23;;
25497;SDS011;13406;53.380;7.226;2023-02-11T07:48:22;22.07;;;10.80;;
25497;SDS011;13406;53.380;7.226;2023-02-11T07:50:48;19.23;;;10.33;;
25497;SDS011;13406;53.380;7.226;2023-02-11T07:55:42;21.57;;;10.67;;
25497;SDS011;13406;53.380;7.226;2023-02-11T07:58:10;18.90;;;11.20;;
25497;SDS011;13406;53.380;7.226;2023-02-11T08:00:35;24.07;;;10.20;;
25497;SDS011;13406;53.380;7.226;2023-02-11T08:03:01;24.43;;;10.97;;
25497;SDS011;13406;53.380;7.226;2023-02-11T08:05:26;20.93;;;11.20;;
25497;SDS011;13406;53.380;7.226;2023-02-11T08:07:52;15.57;;;10.27;;
25497;SDS011;13406;53.380;7.226;2023-02-11T08:10:17;20.03;;;9.50;;
25497;SDS011;13406;53.380;7.226;2023-02-11T08:12:43;20.53;;;10.40;;
25497;SDS011;13406;53.380;7.226;2023-02-11T08:15:08;18.00;;;10.07;;
25497;SDS011;13406;53.380;7.226;2023-02-11T08:17:34;20.47;;;9.67;;
25497;SDS011;13406;53.380;7.226;2023-02-11T08:19:59;17.17;;;10.47;;
25497;SDS011;13406;53.380;7.226;2023-02-11T08:22:24;21.87;;;10.20;;
25497;SDS011;13406;53.380;7.226;2023-02-11T08:24:50;19.13;;;10.90;;
25497;SDS011;13406;53.380;7.226;2023-02-11T08:27:15;22.03;;;10.57;;
25497;SDS011;13406;53.380;7.226;2023-02-11T08:29:40;14.80;;;9.13;;
25497;SDS011;13406;53.380;7.226;2023-02-11T08:32:05;16.63;;;9.67;;
25497;SDS011;13406;53.380;7.226;2023-02-11T08:34:31;22.40;;;9.50;;
25497;SDS011;13406;53.380;7.226;2023-02-11T08:36:56;23.77;;;9.40;;
25497;SDS011;13406;53.380;7.226;2023-02-11T08:39:21;16.60;;;8.30;;
25497;SDS011;13406;53.380;7.226;2023-02-11T08:41:48;21.40;;;8.93;;
25497;SDS011;13406;53.380;7.226;2023-02-11T08:44:13;19.00;;;8.60;;
25497;SDS011;13406;53.380;7.226;2023-02-11T08:46:38;17.57;;;8.33;;
25497;SDS011;13406;53.380;7.226;2023-02-11T08:49:04;18.03;;;7.87;;
25497;SDS011;13406;53.380;7.226;2023-02-11T08:51:29;18.40;;;7.87;;
25497;SDS011;13406;53.380;7.226;2023-02-11T08:53:55;16.57;;;6.97;;
25497;SDS011;13406;53.380;7.226;2023-02-11T08:56:21;22.03;;;7.93;;
25497;SDS011;13406;53.380;7.226;2023-02-11T08:58:50;17.70;;;7.90;;
25497;SDS011;13406;53.380;7.226;2023-02-11T09:01:20;26.33;;;7.70;;
25497;SDS011;13406;53.380;7.226;2023-02-11T09:03:45;22.03;;;7.97;;
25497;SDS011;13406;53.380;7.226;2023-02-11T09:06:11;15.10;;;7.33;;
25497;SDS011;13406;53.380;7.226;2023-02-11T09:08:39;17.87;;;6.93;;
25497;SDS011;13406;53.380;7.226;2023-02-11T09:11:04;18.50;;;6.67;;
25497;SDS011;13406;53.380;7.226;2023-02-11T09:13:30;17.43;;;7.50;;
25497;SDS011;13406;53.380;7.226;2023-02-11T09:15:55;16.00;;;6.80;;
25497;SDS011;13406;53.380;7.226;2023-02-11T09:18:21;21.97;;;7.97;;
25497;SDS011;13406;53.380;7.226;2023-02-11T09:20:46;23.90;;;8.07;;
25497;SDS011;13406;53.380;7.226;2023-02-11T09:25:39;13.03;;;6.30;;
25497;SDS011;13406;53.380;7.226;2023-02-11T09:28:05;18.30;;;7.83;;
25497;SDS011;13406;53.380;7.226;2023-02-11T09:30:30;15.97;;;7.07;;
25497;SDS011;13406;53.380;7.226;2023-02-11T09:32:56;22.33;;;7.50;;
25497;SDS011;13406;53.380;7.226;2023-02-11T09:35:21;14.03;;;6.30;;
25497;SDS011;13406;53.380;7.226;2023-02-11T09:37:46;15.50;;;6.40;;
25497;SDS011;13406;53.380;7.226;2023-02-11T09:40:12;19.43;;;7.97;;
25497;SDS011;13406;53.380;7.226;2023-02-11T09:45:27;16.60;;;6.93;;
25497;SDS011;13406;53.380;7.226;2023-02-11T09:47:55;14.83;;;6.10;;
25497;SDS011;13406;53.380;7.226;2023-02-11T09:50:42;27.00;;;7.87;;
25497;SDS011;13406;53.380;7.226;2023-02-11T09:53:40;26.97;;;7.30;;
25497;SDS011;13406;53.380;7.226;2023-02-11T09:56:01;16.73;;;6.70;;
25497;SDS011;13406;53.380;7.226;2023-02-11T09:58:27;22.70;;;7.50;;
25497;SDS011;13406;53.380;7.226;2023-02-11T10:00:57;16.87;;;6.43;;
25497;SDS011;13406;53.380;7.226;2023-02-11T10:10:56;23.83;;;5.70;;
25497;SDS011;13406;53.380;7.226;2023-02-11T10:16:12;16.10;;;6.50;;
25497;SDS011;13406;53.380;7.226;2023-02-11T10:21:37;22.70;;;7.33;;
25497;SDS011;13406;53.380;7.226;2023-02-11T10:24:09;16.67;;;6.40;;
25497;SDS011;13406;53.380;7.226;2023-02-11T10:26:35;24.20;;;6.70;;
25497;SDS011;13406;53.380;7.226;2023-02-11T10:29:01;20.23;;;5.97;;
25497;SDS011;13406;53.380;7.226;2023-02-11T10:31:39;19.83;;;5.57;;
25497;SDS011;13406;53.380;7.226;2023-02-11T10:34:08;17.93;;;6.03;;
25497;SDS011;13406;53.380;7.226;2023-02-11T10:36:34;19.50;;;6.20;;
25497;SDS011;13406;53.380;7.226;2023-02-11T10:39:01;21.60;;;5.77;;
25497;SDS011;13406;53.380;7.226;2023-02-11T10:41:33;20.37;;;6.83;;
25497;SDS011;13406;53.380;7.226;2023-02-11T10:44:00;17.43;;;5.60;;
25497;SDS011;13406;53.380;7.226;2023-02-11T10:46:28;20.07;;;5.50;;
25497;SDS011;13406;53.380;7.226;2023-02-11T10:48:54;25.03;;;6.60;;
25497;SDS011;13406;53.380;7.226;2023-02-11T10:51:26;29.70;;;6.50;;
25497;SDS011;13406;53.380;7.226;2023-02-11T10:56:33;20.10;;;6.10;;
25497;SDS011;13406;53.380;7.226;2023-02-11T10:59:00;29.10;;;6.00;;
25497;SDS011;13406;53.380;7.226;2023-02-11T11:01:45;18.53;;;6.80;;
25497;SDS011;13406;53.380;7.226;2023-02-11T11:04:46;17.97;;;6.03;;
25497;SDS011;13406;53.380;7.226;2023-02-11T11:07:15;21.33;;;6.03;;
25497;SDS011;13406;53.380;7.226;2023-02-11T11:09:43;17.13;;;5.20;;
25497;SDS011;13406;53.380;7.226;2023-02-11T11:12:45;18.63;;;5.33;;
25497;SDS011;13406;53.380;7.226;2023-02-11T11:17:26;21.50;;;5.00;;
25497;SDS011;13406;53.380;7.226;2023-02-11T11:20:18;20.33;;;5.17;;
25497;SDS011;13406;53.380;7.226;2023-02-11T11:22:40;23.20;;;5.57;;
25497;SDS011;13406;53.380;7.226;2023-02-11T11:25:18;16.13;;;4.30;;
25497;SDS011;13406;53.380;7.226;2023-02-11T11:27:47;19.33;;;4.77;;
25497;SDS011;13406;53.380;7.226;2023-02-11T11:30:16;15.30;;;3.87;;
25497;SDS011;13406;53.380;7.226;2023-02-11T11:32:41;17.27;;;4.23;;
25497;SDS011;13406;53.380;7.226;2023-02-11T11:35:20;18.17;;;4.03;;
25497;SDS011;13406;53.380;7.226;2023-02-11T11:37:50;23.10;;;3.80;;
25497;SDS011;13406;53.380;7.226;2023-02-11T11:40:24;18.03;;;3.90;;
25497;SDS011;13406;53.380;7.226;2023-02-11T11:43:00;13.40;;;3.50;;
25497;SDS011;13406;53.380;7.226;2023-02-11T11:45:29;22.00;;;4.63;;
25497;SDS011;13406;53.380;7.226;2023-02-11T11:50:36;19.13;;;3.97;;
25497;SDS011;13406;53.380;7.226;2023-02-11T11:58:00;20.37;;;4.40;;
25497;SDS011;13406;53.380;7.226;2023-02-11T12:00:39;24.67;;;4.83;;
25497;SDS011;13406;53.380;7.226;2023-02-11T12:05:42;18.43;;;3.37;;
25497;SDS011;13406;53.380;7.226;2023-02-11T12:08:28;11.97;;;3.87;;
25497;SDS011;13406;53.380;7.226;2023-02-11T12:16:07;23.63;;;3.83;;
25497;SDS011;13406;53.380;7.226;2023-02-11T12:23:54;21.63;;;5.13;;
25497;SDS011;13406;53.380;7.226;2023-02-11T12:26:23;20.77;;;5.17;;
25497;SDS011;13406;53.380;7.226;2023-02-11T12:36:58;21.77;;;4.30;;
25497;SDS011;13406;53.380;7.226;2023-02-11T12:42:25;16.73;;;3.60;;
25497;SDS011;13406;53.380;7.226;2023-02-11T12:50:06;16.00;;;3.70;;
25497;SDS011;13406;53.380;7.226;2023-02-11T12:55:19;25.67;;;5.53;;
25497;SDS011;13406;53.380;7.226;2023-02-11T12:57:46;20.57;;;5.37;;
25497;SDS011;13406;53.380;7.226;2023-02-11T13:05:24;16.33;;;3.20;;
25497;SDS011;13406;53.380;7.226;2023-02-11T13:07:51;17.73;;;5.00;;
25497;SDS011;13406;53.380;7.226;2023-02-11T13:13:32;15.83;;;3.80;;
25497;SDS011;13406;53.380;7.226;2023-02-11T13:16:00;20.43;;;4.20;;
25497;SDS011;13406;53.380;7.226;2023-02-11T13:21:35;16.20;;;5.10;;
25497;SDS011;13406;53.380;7.226;2023-02-11T13:24:07;12.57;;;3.70;;
25497;SDS011;13406;53.380;7.226;2023-02-11T13:30:00;20.07;;;3.77;;
25497;SDS011;13406;53.380;7.226;2023-02-11T13:32:05;21.83;;;3.73;;
25497;SDS011;13406;53.380;7.226;2023-02-11T13:37:12;14.70;;;3.73;;
25497;SDS011;13406;53.380;7.226;2023-02-11T13:39:50;21.87;;;4.00;;
25497;SDS011;13406;53.380;7.226;2023-02-11T13:42:19;19.47;;;3.60;;
25497;SDS011;13406;53.380;7.226;2023-02-11T13:44:45;14.90;;;3.87;;
25497;SDS011;13406;53.380;7.226;2023-02-11T13:47:13;20.77;;;4.70;;
25497;SDS011;13406;53.380;7.226;2023-02-11T13:49:48;17.73;;;4.47;;
25497;SDS011;13406;53.380;7.226;2023-02-11T13:52:25;25.47;;;3.93;;
25497;SDS011;13406;53.380;7.226;2023-02-11T13:54:52;23.40;;;4.27;;
25497;SDS011;13406;53.380;7.226;2023-02-11T13:59:44;18.50;;;3.53;;
25497;SDS011;13406;53.380;7.226;2023-02-11T14:10:51;18.77;;;3.90;;
25497;SDS011;13406;53.380;7.226;2023-02-11T14:13:24;25.20;;;4.67;;
25497;SDS011;13406;53.380;7.226;2023-02-11T14:21:12;14.33;;;2.90;;
25497;SDS011;13406;53.380;7.226;2023-02-11T14:23:38;17.47;;;6.10;;
25497;SDS011;13406;53.380;7.226;2023-02-11T14:26:27;18.50;;;4.00;;
25497;SDS011;13406;53.380;7.226;2023-02-11T14:31:34;19.33;;;4.30;;
25497;SDS011;13406;53.380;7.226;2023-02-11T14:37:16;16.67;;;3.30;;
25497;SDS011;13406;53.380;7.226;2023-02-11T14:41:39;18.50;;;3.80;;
25497;SDS011;13406;53.380;7.226;2023-02-11T14:44:06;23.47;;;4.07;;
25497;SDS011;13406;53.380;7.226;2023-02-11T14:46:36;22.47;;;4.00;;
25497;SDS011;13406;53.380;7.226;2023-02-11T14:49:02;23.10;;;4.10;;
25497;SDS011;13406;53.380;7.226;2023-02-11T14:53:56;21.90;;;3.50;;
25497;SDS011;13406;53.380;7.226;2023-02-11T14:56:27;30.93;;;3.87;;
25497;SDS011;13406;53.380;7.226;2023-02-11T14:58:55;14.70;;;3.60;;
25497;SDS011;13406;53.380;7.226;2023-02-11T15:01:25;13.77;;;3.57;;
25497;SDS011;13406;53.380;7.226;2023-02-11T15:03:52;17.07;;;4.10;;
25497;SDS011;13406;53.380;7.226;2023-02-11T15:06:34;18.50;;;4.03;;
25497;SDS011;13406;53.380;7.226;2023-02-11T15:11:48;16.03;;;3.87;;
25497;SDS011;13406;53.380;7.226;2023-02-11T15:16:45;17.60;;;4.00;;
25497;SDS011;13406;53.380;7.226;2023-02-11T15:19:22;19.00;;;4.10;;
25497;SDS011;13406;53.380;7.226;2023-02-11T15:21:48;19.23;;;4.00;;
25497;SDS011;13406;53.380;7.226;2023-02-11T15:24:28;20.70;;;4.60;;
25497;SDS011;13406;53.380;7.226;2023-02-11T15:27:16;19.50;;;3.67;;
25497;SDS011;13406;53.380;7.226;2023-02-11T15:29:46;15.50;;;3.60;;
25497;SDS011;13406;53.380;7.226;2023-02-11T15:34:39;17.10;;;3.20;;
25497;SDS011;13406;53.380;7.226;2023-02-11T15:37:12;18.03;;;3.40;;
25497;SDS011;13406;53.380;7.226;2023-02-11T15:39:39;23.07;;;4.50;;
25497;SDS011;13406;53.380;7.226;2023-02-11T15:47:34;17.43;;;3.93;;
25497;SDS011;13406;53.380;7.226;2023-02-11T15:49:59;11.67;;;2.93;;
25497;SDS011;13406;53.380;7.226;2023-02-11T15:52:25;18.43;;;4.10;;
25497;SDS011;13406;53.380;7.226;2023-02-11T15:54:51;20.67;;;4.70;;
25497;SDS011;13406;53.380;7.226;2023-02-11T15:57:16;18.67;;;4.07;;
25497;SDS011;13406;53.380;7.226;2023-02-11T15:59:46;21.70;;;3.47;;
25497;SDS011;13406;53.380;7.226;2023-02-11T16:04:46;19.27;;;5.13;;
25497;SDS011;13406;53.380;7.226;2023-02-11T16:07:36;15.40;;;3.37;;
25497;SDS011;13406;53.380;7.226;2023-02-11T16:09:58;17.97;;;4.00;;
25497;SDS011;13406;53.380;7.226;2023-02-11T16:12:24;17.33;;;3.83;;
25497;SDS011;13406;53.380;7.226;2023-02-11T16:14:51;18.53;;;3.77;;
25497;SDS011;13406;53.380;7.226;2023-02-11T16:17:23;20.23;;;4.10;;
25497;SDS011;13406;53.380;7.226;2023-02-11T16:19:49;17.33;;;5.40;;
25497;SDS011;13406;53.380;7.226;2023-02-11T16:22:18;16.20;;;4.53;;
25497;SDS011;13406;53.380;7.226;2023-02-11T16:24:45;16.03;;;3.90;;
25497;SDS011;13406;53.380;7.226;2023-02-11T16:27:21;19.70;;;4.40;;
25497;SDS011;13406;53.380;7.226;2023-02-11T16:29:47;15.33;;;3.57;;
25497;SDS011;13406;53.380;7.226;2023-02-11T16:32:20;20.97;;;4.17;;
25497;SDS011;13406;53.380;7.226;2023-02-11T16:34:45;15.00;;;3.10;;
25497;SDS011;13406;53.380;7.226;2023-02-11T16:37:11;14.70;;;3.70;;
25497;SDS011;13406;53.380;7.226;2023-02-11T16:39:36;18.33;;;4.30;;
25497;SDS011;13406;53.380;7.226;2023-02-11T16:42:01;17.70;;;4.30;;
25497;SDS011;13406;53.380;7.226;2023-02-11T16:44:27;17.23;;;4.47;;
25497;SDS011;13406;53.380;7.226;2023-02-11T16:46:52;19.10;;;4.27;;
25497;SDS011;13406;53.380;7.226;2023-02-11T16:49:25;15.80;;;5.03;;
25497;SDS011;13406;53.380;7.226;2023-02-11T16:51:58;25.87;;;5.73;;
25497;SDS011;13406;53.380;7.226;2023-02-11T16:54:25;17.83;;;3.97;;
25497;SDS011;13406;53.380;7.226;2023-02-11T16:56:51;22.10;;;4.40;;
25497;SDS011;13406;53.380;7.226;2023-02-11T16:59:16;20.40;;;4.43;;
25497;SDS011;13406;53.380;7.226;2023-02-11T17:01:41;14.50;;;3.23;;
25497;SDS011;13406;53.380;7.226;2023-02-11T17:04:22;26.33;;;5.57;;
25497;SDS011;13406;53.380;7.226;2023-02-11T17:06:51;19.63;;;4.90;;
25497;SDS011;13406;53.380;7.226;2023-02-11T17:09:17;19.27;;;4.17;;
25497;SDS011;13406;53.380;7.226;2023-02-11T17:11:42;19.83;;;4.40;;
25497;SDS011;13406;53.380;7.226;2023-02-11T17:14:08;18.30;;;4.60;;